createdAt,value
2019-05-21T00:01:03.073Z,2.80
2019-05-21T00:03:33.045Z,3.87
2019-05-21T00:06:04.015Z,4.00
2019-05-21T00:08:34.172Z,3.20
2019-05-21T00:11:04.174Z,3.30
2019-05-21T00:13:34.675Z,3.00
2019-05-21T00:16:04.751Z,3.70
2019-05-21T00:18:34.995Z,3.17
2019-05-21T00:21:06.289Z,3.00
2019-05-21T00:23:36.643Z,3.50
2019-05-21T00:26:07.467Z,3.37
2019-05-21T00:28:40.975Z,3.30
2019-05-21T00:31:46.122Z,3.27
2019-05-21T00:34:51.409Z,3.23
2019-05-21T00:37:56.967Z,2.90
2019-05-21T00:41:02.319Z,3.30
2019-05-21T00:43:50.505Z,2.90
2019-05-21T00:46:20.613Z,3.00
2019-05-21T00:48:51.013Z,2.70
2019-05-21T00:51:25.562Z,2.77
2019-05-21T00:53:55.532Z,2.70
2019-05-21T00:56:28.652Z,2.90
2019-05-21T00:58:58.561Z,2.70
2019-05-21T01:01:30.036Z,3.03
2019-05-21T01:04:00.061Z,2.83
2019-05-21T01:06:34.503Z,2.80
2019-05-21T01:09:05.856Z,3.17
2019-05-21T01:11:37.752Z,2.70
2019-05-21T01:14:10.912Z,2.90
2019-05-21T01:16:41.428Z,3.03
2019-05-21T01:19:12.920Z,2.40
2019-05-21T01:21:42.756Z,2.50
2019-05-21T01:24:12.734Z,3.00
2019-05-21T01:26:42.624Z,3.03
2019-05-21T01:29:12.674Z,3.13
2019-05-21T01:31:42.910Z,3.43
2019-05-21T01:34:14.274Z,2.90
2019-05-21T01:36:44.295Z,3.17
2019-05-21T01:39:15.050Z,3.87
2019-05-21T01:41:45.345Z,3.57
2019-05-21T01:44:15.215Z,4.07
2019-05-21T01:46:45.303Z,3.27
2019-05-21T01:49:17.413Z,3.60
2019-05-21T01:51:49.390Z,3.37
2019-05-21T01:54:22.273Z,3.40
2019-05-21T01:56:52.268Z,3.50
2019-05-21T01:59:23.382Z,3.63
2019-05-21T02:01:53.322Z,3.33
2019-05-21T02:04:23.219Z,3.20
2019-05-21T02:06:53.610Z,3.17
2019-05-21T02:09:27.917Z,3.53
2019-05-21T02:11:58.729Z,3.50
2019-05-21T02:14:29.074Z,3.60
2019-05-21T02:16:59.795Z,3.93
2019-05-21T02:19:29.636Z,4.93
2019-05-21T02:21:59.643Z,3.50
2019-05-21T02:24:29.510Z,4.10
2019-05-21T02:27:00.203Z,3.77
2019-05-21T02:29:30.134Z,3.93
2019-05-21T02:32:00.117Z,3.63
2019-05-21T02:34:30.029Z,4.30
2019-05-21T02:37:00.239Z,4.30
2019-05-21T02:39:30.153Z,4.63
2019-05-21T02:42:00.012Z,4.63
2019-05-21T02:44:29.825Z,3.73
2019-05-21T02:46:59.785Z,4.67
2019-05-21T02:49:29.647Z,4.40
2019-05-21T02:52:02.242Z,4.27
2019-05-21T02:54:40.878Z,3.90
2019-05-21T02:57:07.247Z,4.77
2019-05-21T02:59:39.799Z,4.40
2019-05-21T03:02:24.079Z,4.50
2019-05-21T03:04:54.103Z,4.50
2019-05-21T03:07:25.646Z,4.23
2019-05-21T03:09:55.843Z,4.63
2019-05-21T03:12:25.733Z,3.97
2019-05-21T03:14:55.750Z,4.57
2019-05-21T03:17:25.663Z,5.00
2019-05-21T03:19:59.438Z,4.87
2019-05-21T03:22:29.333Z,4.60
2019-05-21T03:25:02.313Z,4.53
2019-05-21T03:27:30.931Z,5.13
2019-05-21T03:30:01.468Z,4.63
2019-05-21T03:32:32.085Z,4.47
2019-05-21T03:35:01.998Z,5.03
2019-05-21T03:37:32.042Z,4.90
2019-05-21T03:40:02.189Z,5.70
2019-05-21T03:42:32.221Z,4.83
2019-05-21T03:45:07.309Z,5.20
2019-05-21T03:47:35.436Z,5.30
2019-05-21T03:50:05.825Z,5.33
2019-05-21T03:52:37.402Z,4.70
2019-05-21T03:55:08.045Z,5.80
2019-05-21T03:57:38.434Z,5.27
2019-05-21T04:00:10.737Z,4.87
2019-05-21T04:02:43.397Z,5.70
2019-05-21T04:05:14.886Z,6.63
2019-05-21T04:07:46.158Z,6.00
2019-05-21T04:10:18.026Z,6.03
2019-05-21T04:13:06.430Z,6.80
2019-05-21T04:15:45.255Z,8.00
2019-05-21T04:18:22.940Z,14.30
2019-05-21T04:20:54.374Z,12.00
2019-05-21T04:23:24.675Z,15.87
2019-05-21T04:25:54.914Z,13.67
2019-05-21T04:28:25.095Z,11.77
2019-05-21T04:30:55.123Z,11.80
2019-05-21T04:33:26.612Z,12.20
2019-05-21T04:36:02.488Z,12.50
2019-05-21T04:38:33.204Z,13.23
2019-05-21T04:41:03.654Z,12.17
2019-05-21T04:43:34.126Z,12.47
2019-05-21T04:46:04.231Z,13.80
2019-05-21T04:48:34.155Z,16.10
2019-05-21T04:51:04.897Z,14.50
2019-05-21T04:53:34.721Z,15.27
2019-05-21T04:56:05.993Z,14.93
2019-05-21T04:58:35.824Z,16.23
2019-05-21T05:01:09.604Z,16.87
2019-05-21T05:03:40.091Z,16.60
2019-05-21T05:06:10.156Z,18.80
2019-05-21T05:08:40.437Z,19.57
2019-05-21T05:11:10.630Z,22.00
2019-05-21T05:13:41.569Z,21.03
2019-05-21T05:16:11.682Z,22.30
2019-05-21T05:18:41.820Z,23.07
2019-05-21T05:21:13.630Z,22.93
2019-05-21T05:23:44.008Z,24.60
2019-05-21T05:26:20.990Z,26.60
2019-05-21T05:28:53.720Z,24.37
2019-05-21T05:31:24.440Z,26.50
2019-05-21T05:33:56.769Z,27.40
2019-05-21T05:36:26.770Z,29.17
2019-05-21T05:38:56.734Z,31.13
2019-05-21T05:41:27.090Z,37.07
2019-05-21T05:43:57.206Z,40.00
2019-05-21T05:46:27.391Z,32.80
2019-05-21T05:49:03.135Z,34.40
2019-05-21T05:51:33.075Z,40.57
2019-05-21T05:54:03.069Z,36.80
2019-05-21T05:56:33.506Z,32.27
2019-05-21T05:59:03.511Z,27.07
2019-05-21T06:01:34.605Z,27.03
2019-05-21T06:04:04.746Z,26.60
2019-05-21T06:06:35.409Z,28.80
2019-05-21T06:09:09.220Z,26.30
2019-05-21T06:11:40.618Z,26.17
2019-05-21T06:14:10.801Z,25.23
2019-05-21T06:16:40.796Z,25.07
2019-05-21T06:19:10.967Z,30.73
2019-05-21T06:21:40.904Z,24.47
2019-05-21T06:24:13.526Z,24.67
2019-05-21T06:26:42.576Z,26.60
2019-05-21T06:29:12.849Z,22.83
2019-05-21T06:31:42.812Z,23.13
2019-05-21T06:34:12.876Z,23.13
2019-05-21T06:36:42.972Z,24.43
2019-05-21T06:39:13.025Z,24.63
2019-05-21T06:41:43.009Z,23.80
2019-05-21T06:44:12.988Z,23.60
2019-05-21T06:46:42.979Z,22.87
2019-05-21T06:49:12.957Z,22.63
2019-05-21T06:51:42.978Z,23.27
2019-05-21T06:54:13.243Z,21.87
2019-05-21T06:56:43.311Z,23.93
2019-05-21T06:59:13.340Z,24.23
2019-05-21T07:01:43.281Z,24.50
2019-05-21T07:04:13.320Z,22.60
2019-05-21T07:06:44.875Z,22.77
2019-05-21T07:09:15.027Z,23.27
2019-05-21T07:11:45.132Z,23.17
2019-05-21T07:14:16.346Z,22.37
2019-05-21T07:16:46.182Z,21.70
2019-05-21T07:19:16.206Z,24.03
2019-05-21T07:21:46.166Z,22.70
2019-05-21T07:24:16.947Z,21.60
2019-05-21T07:26:46.908Z,21.53
2019-05-21T07:29:16.866Z,22.50
2019-05-21T07:31:46.860Z,21.63
2019-05-21T07:34:17.097Z,22.70
2019-05-21T07:36:46.968Z,22.37
2019-05-21T07:39:17.003Z,22.10
2019-05-21T07:41:46.986Z,22.17
2019-05-21T07:44:19.125Z,24.27
2019-05-21T07:46:49.479Z,24.07
2019-05-21T07:49:20.532Z,24.97
2019-05-21T07:51:50.492Z,24.17
2019-05-21T07:54:20.469Z,25.60
2019-05-21T07:56:50.603Z,23.87
2019-05-21T07:59:20.620Z,22.83
2019-05-21T08:01:50.640Z,26.40
2019-05-21T08:04:20.512Z,26.40
2019-05-21T08:06:50.524Z,25.80
2019-05-21T08:09:20.630Z,26.10
2019-05-21T08:11:50.784Z,26.50
2019-05-21T08:14:21.865Z,24.50
2019-05-21T08:16:51.816Z,24.50
2019-05-21T08:19:22.017Z,23.30
2019-05-21T08:21:52.148Z,25.53
2019-05-21T08:24:22.262Z,22.57
2019-05-21T08:26:52.613Z,24.07
2019-05-21T08:29:23.598Z,23.00
2019-05-21T08:31:54.875Z,22.37
2019-05-21T08:34:25.306Z,22.53
2019-05-21T08:36:55.465Z,21.40
2019-05-21T08:39:28.655Z,22.17
2019-05-21T08:41:57.610Z,22.83
2019-05-21T08:44:27.971Z,22.57
2019-05-21T08:47:03.634Z,21.00
2019-05-21T08:49:34.613Z,19.60
2019-05-21T08:52:04.719Z,19.67
2019-05-21T08:54:50.724Z,21.40
2019-05-21T08:57:22.008Z,19.27
2019-05-21T08:59:52.152Z,18.40
2019-05-21T09:02:26.020Z,18.07
2019-05-21T09:04:56.090Z,16.60
2019-05-21T09:07:26.273Z,15.37
2019-05-21T09:10:00.820Z,15.57
2019-05-21T09:12:30.814Z,14.40
2019-05-21T09:15:04.085Z,13.50
2019-05-21T09:17:34.261Z,14.10
2019-05-21T09:20:06.898Z,14.03
2019-05-21T09:22:37.980Z,15.00
2019-05-21T09:25:08.299Z,15.10
2019-05-21T09:27:40.049Z,16.00
2019-05-21T09:30:11.369Z,15.83
2019-05-21T09:32:45.155Z,17.00
2019-05-21T09:35:15.342Z,15.63
2019-05-21T09:37:45.384Z,14.00
2019-05-21T09:40:15.789Z,13.77
2019-05-21T09:42:46.180Z,14.10
2019-05-21T09:45:18.198Z,15.63
2019-05-21T09:47:46.227Z,13.70
2019-05-21T09:50:16.338Z,13.57
2019-05-21T09:52:46.318Z,14.90
2019-05-21T09:55:17.126Z,13.40
2019-05-21T09:58:12.456Z,13.37
2019-05-21T10:01:08.429Z,13.67
2019-05-21T10:03:42.704Z,13.50
2019-05-21T10:06:14.129Z,11.00
2019-05-21T10:08:46.022Z,11.70
2019-05-21T10:11:16.741Z,10.70
2019-05-21T10:13:47.013Z,10.40
2019-05-21T10:16:17.953Z,9.60
2019-05-21T10:18:48.900Z,10.27
2019-05-21T10:21:26.589Z,9.77
2019-05-21T10:23:58.225Z,10.50
2019-05-21T10:26:31.136Z,10.20
2019-05-21T10:29:01.515Z,9.10
2019-05-21T10:31:33.411Z,8.60
2019-05-21T10:34:04.576Z,7.53
2019-05-21T10:36:35.467Z,7.90
2019-05-21T10:39:07.588Z,6.70
2019-05-21T10:41:38.009Z,5.90
2019-05-21T10:44:09.164Z,5.40
2019-05-21T10:46:39.869Z,6.20
2019-05-21T10:49:11.121Z,5.33
2019-05-21T10:51:41.848Z,5.50
2019-05-21T10:54:12.562Z,5.50
2019-05-21T10:56:47.777Z,5.50
2019-05-21T10:59:17.326Z,5.33
2019-05-21T11:02:13.187Z,4.97
2019-05-21T11:04:48.469Z,4.27
2019-05-21T11:07:21.967Z,4.27
2019-05-21T11:09:52.422Z,4.20
2019-05-21T11:12:23.403Z,6.37
2019-05-21T11:14:54.271Z,4.63
2019-05-21T11:17:25.523Z,4.33
2019-05-21T11:19:56.603Z,5.10
2019-05-21T11:22:27.859Z,4.73
2019-05-21T11:24:59.546Z,4.50
2019-05-21T11:27:31.703Z,3.83
2019-05-21T11:30:02.771Z,3.90
2019-05-21T11:32:35.043Z,3.90
2019-05-21T11:35:07.033Z,3.53
2019-05-21T11:37:37.349Z,4.33
2019-05-21T11:40:08.733Z,4.00
2019-05-21T11:42:39.395Z,4.00
2019-05-21T11:45:10.719Z,4.10
2019-05-21T11:47:41.187Z,3.87
2019-05-21T11:50:11.821Z,4.13
2019-05-21T11:52:41.813Z,3.70
2019-05-21T11:55:11.907Z,4.77
2019-05-21T11:57:42.310Z,3.43
2019-05-21T12:00:13.106Z,4.10
2019-05-21T12:02:43.151Z,4.37
2019-05-21T12:05:13.286Z,4.60
2019-05-21T12:07:43.721Z,4.10
2019-05-21T12:10:13.952Z,4.53
2019-05-21T12:12:44.175Z,3.60
2019-05-21T12:15:14.847Z,3.63
2019-05-21T12:17:45.871Z,3.13
2019-05-21T12:20:35.287Z,7.03
2019-05-21T12:22:50.837Z,3.50
2019-05-21T12:25:21.341Z,3.77
2019-05-21T12:27:51.841Z,2.90
2019-05-21T12:30:22.431Z,3.70
2019-05-21T12:32:52.582Z,3.23
2019-05-21T12:35:22.879Z,2.60
2019-05-21T12:37:53.707Z,2.13
2019-05-21T12:40:23.927Z,2.40
2019-05-21T12:42:54.823Z,2.13
2019-05-21T12:45:24.884Z,1.83
2019-05-21T12:47:55.011Z,3.10
2019-05-21T12:50:29.244Z,3.63
2019-05-21T12:52:59.255Z,3.00
2019-05-21T12:55:29.452Z,3.10
2019-05-21T12:57:59.615Z,3.10
2019-05-21T13:00:34.338Z,3.10
2019-05-21T13:03:04.454Z,3.17
2019-05-21T13:05:34.498Z,3.10
2019-05-21T13:08:06.262Z,3.70
2019-05-21T13:10:38.712Z,5.77
2019-05-21T13:13:09.223Z,7.83
2019-05-21T13:15:40.356Z,7.33
2019-05-21T13:18:12.286Z,6.17
2019-05-21T13:20:45.203Z,8.90
2019-05-21T13:23:18.050Z,7.27
2019-05-21T13:25:51.363Z,6.90
2019-05-21T13:28:22.066Z,7.90
2019-05-21T13:30:54.367Z,8.07
2019-05-21T13:33:29.789Z,8.60
2019-05-21T13:36:04.777Z,8.47
2019-05-21T13:38:38.273Z,8.80
2019-05-21T13:43:41.877Z,8.90
2019-05-21T13:46:17.671Z,9.77
2019-05-21T13:48:50.813Z,9.17
2019-05-21T13:51:24.071Z,13.00
2019-05-21T13:53:59.607Z,9.40
2019-05-21T13:56:32.919Z,9.60
2019-05-21T13:59:10.040Z,9.10
2019-05-21T14:01:44.172Z,8.70
2019-05-21T14:04:15.381Z,8.20
2019-05-21T14:06:45.480Z,8.17
2019-05-21T14:09:22.883Z,7.17
2019-05-21T14:11:56.240Z,7.20
2019-05-21T14:14:26.934Z,6.53
2019-05-21T14:16:58.091Z,6.70
2019-05-21T14:19:31.231Z,5.50
2019-05-21T14:22:01.791Z,5.57
2019-05-21T14:24:32.553Z,5.43
2019-05-21T14:27:02.914Z,5.97
2019-05-21T14:29:33.226Z,4.50
2019-05-21T14:32:03.987Z,7.80
2019-05-21T14:34:35.412Z,5.03
2019-05-21T14:37:06.931Z,10.53
2019-05-21T14:39:37.621Z,3.90
2019-05-21T14:42:07.801Z,3.83
2019-05-21T14:44:38.834Z,3.43
2019-05-21T14:47:09.709Z,3.27
2019-05-21T14:49:45.744Z,3.07
2019-05-21T14:52:16.293Z,3.40
2019-05-21T14:54:47.298Z,2.43
2019-05-21T14:57:17.756Z,2.87
2019-05-21T14:59:48.308Z,2.60
2019-05-21T15:02:19.817Z,2.87
2019-05-21T15:04:50.470Z,2.80
2019-05-21T15:07:20.907Z,2.73
2019-05-21T15:09:53.380Z,2.93
2019-05-21T15:12:24.380Z,3.00
2019-05-21T15:14:54.823Z,3.63
2019-05-21T15:17:25.182Z,3.00
2019-05-21T15:19:57.231Z,3.73
2019-05-21T15:22:27.833Z,3.10
2019-05-21T15:25:01.067Z,3.33
2019-05-21T15:27:33.692Z,4.40
2019-05-21T15:30:05.267Z,3.50
2019-05-21T15:32:35.361Z,2.93
2019-05-21T15:35:05.964Z,3.27
2019-05-21T15:37:36.531Z,5.03
2019-05-21T15:40:09.001Z,3.50
2019-05-21T15:42:39.555Z,3.47
2019-05-21T15:45:10.238Z,3.27
2019-05-21T15:47:41.268Z,3.10
2019-05-21T15:50:12.054Z,3.80
2019-05-21T15:52:42.637Z,3.07
2019-05-21T15:55:12.939Z,3.17
2019-05-21T15:57:43.852Z,2.60
2019-05-21T16:00:16.559Z,2.30
2019-05-21T16:02:46.626Z,6.00
2019-05-21T16:05:22.018Z,1.83
2019-05-21T16:07:52.455Z,2.30
2019-05-21T16:10:23.178Z,1.80
2019-05-21T16:12:54.466Z,2.10
2019-05-21T16:15:24.925Z,1.90
2019-05-21T16:17:56.142Z,1.70
2019-05-21T16:20:26.708Z,2.07
2019-05-21T16:22:56.953Z,2.03
2019-05-21T16:25:27.302Z,1.80
2019-05-21T16:27:57.599Z,2.10
2019-05-21T16:30:27.602Z,2.00
2019-05-21T16:32:58.183Z,1.90
2019-05-21T16:35:29.466Z,2.93
2019-05-21T16:38:00.574Z,2.33
2019-05-21T16:40:35.427Z,2.40
2019-05-21T16:43:05.940Z,2.80
2019-05-21T16:45:37.317Z,2.83
2019-05-21T16:48:08.258Z,3.70
2019-05-21T16:50:38.835Z,3.40
2019-05-21T16:53:09.729Z,5.13
2019-05-21T16:55:40.196Z,3.20
2019-05-21T16:58:11.101Z,3.90
2019-05-21T17:00:44.848Z,4.03
2019-05-21T17:03:15.263Z,4.50
2019-05-21T17:05:46.127Z,4.50
2019-05-21T17:08:16.544Z,4.37
2019-05-21T17:10:47.117Z,3.80
2019-05-21T17:13:20.833Z,8.60
2019-05-21T17:15:52.068Z,3.60
2019-05-21T17:18:23.416Z,4.40
2019-05-21T17:20:53.457Z,5.63
2019-05-21T17:23:23.493Z,4.27
2019-05-21T17:25:53.556Z,3.70
2019-05-21T17:28:23.722Z,4.47
2019-05-21T17:30:53.915Z,9.50
2019-05-21T17:33:23.962Z,4.30
2019-05-21T17:35:54.062Z,4.03
2019-05-21T17:38:25.256Z,4.90
2019-05-21T17:40:56.030Z,5.00
2019-05-21T17:43:29.194Z,5.20
2019-05-21T17:46:02.115Z,5.07
2019-05-21T17:48:32.838Z,4.80
2019-05-21T17:51:03.473Z,5.30
2019-05-21T17:53:35.111Z,4.20
2019-05-21T17:56:06.404Z,4.60
2019-05-21T17:58:36.471Z,4.67
2019-05-21T18:01:09.166Z,5.10
2019-05-21T18:03:39.158Z,4.30
2019-05-21T18:06:10.420Z,3.97
2019-05-21T18:08:40.656Z,4.33
2019-05-21T18:11:11.775Z,4.30
2019-05-21T18:13:42.725Z,4.20
2019-05-21T18:16:16.452Z,4.30
2019-05-21T18:18:50.231Z,4.87
2019-05-21T18:21:24.731Z,4.97
2019-05-21T18:23:54.927Z,4.83
2019-05-21T18:26:26.820Z,4.73
2019-05-21T18:28:59.441Z,4.10
2019-05-21T18:31:30.847Z,5.60
2019-05-21T18:34:01.031Z,5.07
2019-05-21T18:36:31.185Z,3.70
2019-05-21T18:39:01.248Z,4.00
2019-05-21T18:41:31.321Z,3.97
2019-05-21T18:44:01.592Z,3.43
2019-05-21T18:46:32.020Z,3.33
2019-05-21T18:49:02.751Z,2.90
2019-05-21T18:51:32.842Z,3.67
2019-05-21T18:54:03.011Z,2.60
2019-05-21T18:56:33.001Z,2.97
2019-05-21T18:59:03.203Z,2.37
2019-05-21T19:01:33.384Z,2.50
2019-05-21T19:04:07.500Z,3.83
2019-05-21T19:06:40.357Z,2.30
2019-05-21T19:09:10.545Z,2.40
2019-05-21T19:11:41.779Z,2.90
2019-05-21T19:14:12.858Z,3.27
2019-05-21T19:16:43.986Z,3.20
2019-05-21T19:19:18.358Z,3.10
2019-05-21T19:21:48.440Z,3.60
2019-05-21T19:24:18.418Z,2.73
2019-05-21T19:26:53.382Z,3.33
2019-05-21T19:31:57.408Z,3.77
2019-05-21T19:34:27.914Z,3.90
2019-05-21T19:36:59.644Z,4.83
2019-05-21T19:39:32.024Z,4.90
2019-05-21T19:42:02.144Z,5.70
2019-05-21T19:44:36.362Z,5.80
2019-05-21T19:47:07.244Z,6.23
2019-05-21T19:49:38.616Z,7.00
2019-05-21T19:52:08.703Z,7.40
2019-05-21T19:54:39.969Z,7.63
2019-05-21T19:57:11.088Z,8.23
2019-05-21T19:59:41.328Z,8.60
2019-05-21T20:02:12.135Z,9.10
2019-05-21T20:04:43.123Z,8.90
2019-05-21T20:07:15.277Z,9.40
2019-05-21T20:09:46.499Z,10.20
2019-05-21T20:12:16.723Z,10.10
2019-05-21T20:14:47.294Z,10.03
2019-05-21T20:17:18.243Z,10.43
2019-05-21T20:19:50.097Z,10.47
2019-05-21T20:22:20.376Z,10.37
2019-05-21T20:24:51.005Z,10.03
2019-05-21T20:27:21.002Z,10.90
2019-05-21T20:29:51.446Z,9.77
2019-05-21T20:32:23.349Z,10.73
2019-05-21T20:34:53.941Z,11.20
2019-05-21T20:37:29.901Z,11.27
2019-05-21T20:40:01.177Z,12.40
2019-05-21T20:42:32.980Z,10.80
2019-05-21T20:45:04.004Z,12.37
2019-05-21T20:47:34.372Z,11.30
2019-05-21T20:50:07.223Z,11.30
2019-05-21T20:52:37.576Z,11.60
2019-05-21T20:55:09.434Z,11.33
2019-05-21T20:57:39.898Z,11.37
2019-05-21T21:00:11.232Z,11.27
2019-05-21T21:02:41.981Z,11.40
2019-05-21T21:05:13.299Z,11.77
2019-05-21T21:07:44.309Z,11.57
2019-05-21T21:10:14.625Z,10.63
2019-05-21T21:12:46.879Z,11.60
2019-05-21T21:15:18.697Z,11.50
2019-05-21T21:17:48.770Z,10.57
2019-05-21T21:20:19.266Z,12.07
2019-05-21T21:22:49.650Z,11.57
2019-05-21T21:25:25.407Z,11.13
2019-05-21T21:27:55.656Z,11.43
2019-05-21T21:30:27.668Z,11.10
2019-05-21T21:32:58.138Z,11.50
2019-05-21T21:35:28.550Z,12.10
2019-05-21T21:38:00.149Z,11.60
2019-05-21T21:40:30.492Z,11.70
2019-05-21T21:43:01.236Z,11.33
2019-05-21T21:45:32.402Z,12.07
2019-05-21T21:48:02.953Z,11.63
2019-05-21T21:50:33.986Z,11.10
2019-05-21T21:53:04.335Z,11.40
2019-05-21T21:55:34.578Z,11.70
2019-05-21T21:58:04.823Z,11.80
2019-05-21T22:01:35.049Z,12.73
2019-05-21T22:04:11.214Z,11.50
2019-05-21T22:06:43.923Z,11.53
2019-05-21T22:09:19.189Z,11.50
2019-05-21T22:11:50.035Z,11.73
2019-05-21T22:14:20.212Z,11.73
2019-05-21T22:16:51.919Z,11.33
2019-05-21T22:19:23.680Z,11.17
2019-05-21T22:21:54.005Z,12.50
2019-05-21T22:24:24.936Z,11.80
2019-05-21T22:26:57.012Z,12.47
2019-05-21T22:29:27.377Z,11.77
2019-05-21T22:34:26.813Z,11.90
2019-05-21T22:36:59.989Z,12.50
2019-05-21T22:39:32.483Z,11.53
2019-05-21T22:42:02.860Z,11.60
2019-05-21T22:44:34.502Z,10.60
2019-05-21T22:47:05.487Z,12.10
2019-05-21T22:49:36.724Z,12.27
2019-05-21T22:52:06.902Z,11.40
2019-05-21T22:54:36.901Z,12.10
2019-05-21T22:57:07.260Z,12.03
2019-05-21T22:59:37.595Z,12.17
2019-05-21T23:02:10.682Z,11.50
2019-05-21T23:04:40.631Z,11.30
2019-05-21T23:07:10.807Z,11.47
2019-05-21T23:09:40.927Z,11.93
2019-05-21T23:12:11.171Z,11.13
2019-05-21T23:14:41.270Z,12.10
2019-05-21T23:17:11.216Z,10.87
2019-05-21T23:19:42.709Z,10.97
2019-05-21T23:22:16.430Z,11.33
2019-05-21T23:24:48.267Z,11.00
2019-05-21T23:27:19.614Z,12.17
2019-05-21T23:29:50.096Z,12.03
2019-05-21T23:32:20.941Z,12.60
2019-05-21T23:34:51.098Z,11.83
2019-05-21T23:37:24.149Z,12.10
2019-05-21T23:39:55.889Z,12.80
2019-05-21T23:42:29.753Z,12.90
2019-05-21T23:45:02.179Z,12.17
2019-05-21T23:47:32.802Z,13.10
2019-05-21T23:50:03.113Z,13.27
2019-05-21T23:52:35.288Z,13.60
2019-05-21T23:55:05.418Z,12.53
2019-05-21T23:57:37.608Z,15.03
